createdAt,value
2023-03-23T16:00:29.422Z,18.88
2023-03-23T16:03:59.810Z,18.63
2023-03-23T16:07:03.011Z,18.52
2023-03-23T16:10:07.875Z,18.39
2023-03-23T16:13:11.184Z,18.20
2023-03-23T16:16:19.646Z,18.02
2023-03-23T16:19:24.668Z,17.99
2023-03-23T16:22:27.594Z,17.83
2023-03-23T16:25:31.450Z,17.68
2023-03-23T16:28:34.825Z,17.53
2023-03-23T16:31:37.569Z,17.38
2023-03-23T16:34:40.723Z,17.25
2023-03-23T16:38:07.660Z,17.15
2023-03-23T16:41:11.659Z,17.06
2023-03-23T16:44:14.656Z,16.97
2023-03-23T16:47:19.094Z,16.94
2023-03-23T16:50:22.240Z,16.83
2023-03-23T16:53:25.182Z,16.73
2023-03-23T16:56:28.048Z,16.67
2023-03-23T16:59:30.971Z,16.53
2023-03-23T17:02:33.922Z,16.50
2023-03-23T17:05:37.639Z,16.45
2023-03-23T17:08:40.389Z,16.34
2023-03-23T17:11:43.179Z,16.25
2023-03-23T17:14:46.125Z,16.17
2023-03-23T17:17:48.949Z,16.07
2023-03-23T17:20:53.811Z,15.91
2023-03-23T17:23:56.703Z,15.93
2023-03-23T17:26:59.432Z,15.86
2023-03-23T17:30:03.155Z,15.89
2023-03-23T17:33:07.335Z,15.86
2023-03-23T17:36:10.804Z,15.74
2023-03-23T17:39:14.593Z,15.62
2023-03-23T17:42:18.296Z,15.51
2023-03-23T17:45:21.418Z,15.44
2023-03-23T17:48:24.179Z,15.36
2023-03-23T17:51:27.422Z,15.25
2023-03-23T17:54:31.182Z,15.20
2023-03-23T17:57:35.284Z,15.17
2023-03-23T18:00:38.899Z,15.02
2023-03-23T18:03:42.543Z,14.76
2023-03-23T18:06:47.204Z,14.59
2023-03-23T18:09:50.744Z,14.30
2023-03-23T18:12:53.741Z,14.24
2023-03-23T18:15:58.232Z,14.15
2023-03-23T18:19:01.289Z,14.10
2023-03-23T18:22:04.260Z,14.01
2023-03-23T18:25:07.227Z,13.89
2023-03-23T18:28:10.193Z,13.90
2023-03-23T18:31:16.212Z,13.83
2023-03-23T18:34:19.337Z,13.77
2023-03-23T18:37:22.329Z,13.69
2023-03-23T18:40:25.332Z,13.69
2023-03-23T18:43:28.405Z,13.62
2023-03-23T18:46:31.692Z,13.49
2023-03-23T18:49:34.967Z,13.30
2023-03-23T18:52:38.782Z,13.16
2023-03-23T18:55:45.584Z,13.15
2023-03-23T18:58:52.539Z,12.87
2023-03-23T19:01:55.874Z,12.49
2023-03-23T19:04:59.164Z,12.47
2023-03-23T19:08:03.772Z,12.45
2023-03-23T19:11:08.430Z,12.39
2023-03-23T19:14:12.097Z,12.38
2023-03-23T19:17:15.149Z,12.42
2023-03-23T19:20:31.555Z,12.33
2023-03-23T19:23:40.521Z,12.20
2023-03-23T19:26:46.498Z,12.04
2023-03-23T19:29:49.792Z,11.88
2023-03-23T19:32:53.099Z,11.65
2023-03-23T19:36:07.371Z,11.69
2023-03-23T19:39:15.535Z,11.62
2023-03-23T19:42:20.469Z,11.74
2023-03-23T19:45:23.796Z,11.63
2023-03-23T19:48:26.958Z,11.56
2023-03-23T19:51:30.838Z,11.55
2023-03-23T19:54:35.801Z,11.63
2023-03-23T19:57:39.641Z,11.60
2023-03-23T20:03:46.752Z,11.40
2023-03-23T20:06:51.123Z,11.34
2023-03-23T20:09:54.618Z,10.96
2023-03-23T20:13:00.012Z,11.02
2023-03-23T20:16:03.253Z,10.94
2023-03-23T20:19:06.398Z,10.91
2023-03-23T20:22:09.599Z,10.69
2023-03-23T20:25:13.387Z,10.52
2023-03-23T20:28:16.764Z,10.44
2023-03-23T20:31:26.564Z,10.42
2023-03-23T20:34:30.808Z,10.49
2023-03-23T20:37:34.879Z,10.64
2023-03-23T20:40:37.933Z,10.67
2023-03-23T20:43:43.177Z,10.58
2023-03-23T20:46:48.197Z,10.49
2023-03-23T20:49:53.184Z,10.44
2023-03-23T20:52:58.044Z,10.31
2023-03-23T20:56:05.600Z,10.21
2023-03-23T20:59:09.254Z,10.04
2023-03-23T21:02:17.363Z,10.11
2023-03-23T21:05:20.705Z,9.91
2023-03-23T21:08:23.968Z,10.05
2023-03-23T21:11:27.413Z,10.09
2023-03-23T21:14:30.424Z,10.17
2023-03-23T21:17:33.378Z,10.19
2023-03-23T21:20:37.805Z,10.40
2023-03-23T21:23:46.586Z,10.52
2023-03-23T21:26:50.225Z,10.61
2023-03-23T21:30:00.319Z,10.66
2023-03-23T21:33:03.290Z,10.73
2023-03-23T21:36:07.099Z,10.51
2023-03-23T21:39:10.621Z,9.90
2023-03-23T21:42:16.586Z,9.74
2023-03-23T21:45:21.124Z,9.74
2023-03-23T21:48:25.313Z,9.74
2023-03-23T21:51:29.925Z,9.76
2023-03-23T21:54:34.383Z,9.81
2023-03-23T21:57:37.306Z,9.92
2023-03-23T22:00:41.386Z,9.84
2023-03-23T22:03:44.935Z,9.91
2023-03-23T22:06:48.127Z,9.94
2023-03-23T22:09:51.540Z,9.86
2023-03-23T22:12:55.589Z,9.92
2023-03-23T22:16:01.296Z,9.89
2023-03-23T22:19:04.435Z,9.88
2023-03-23T22:22:07.689Z,9.92
2023-03-23T22:25:10.743Z,9.92
2023-03-23T22:28:13.836Z,9.87
2023-03-23T22:31:25.082Z,9.79
2023-03-23T22:34:28.332Z,9.68
2023-03-23T22:37:31.159Z,9.67
2023-03-23T22:40:33.923Z,9.56
2023-03-23T22:43:37.792Z,9.32
2023-03-23T22:46:41.464Z,9.48
2023-03-23T22:49:44.304Z,9.33
2023-03-23T22:52:47.637Z,9.31
2023-03-23T22:55:53.207Z,9.08
2023-03-23T22:58:58.935Z,9.13
2023-03-23T23:02:01.862Z,9.06
2023-03-23T23:05:05.482Z,8.89
2023-03-23T23:08:12.495Z,8.77
2023-03-23T23:11:17.478Z,8.83
2023-03-23T23:14:20.256Z,8.76
2023-03-23T23:17:23.005Z,8.66
2023-03-23T23:20:26.828Z,8.65
2023-03-23T23:23:29.623Z,8.43
2023-03-23T23:26:32.437Z,8.44
2023-03-23T23:29:35.224Z,8.61
2023-03-23T23:32:38.471Z,8.45
2023-03-23T23:35:41.885Z,8.48
2023-03-23T23:38:45.255Z,8.39
2023-03-23T23:41:48.256Z,8.47
2023-03-23T23:44:51.054Z,8.44
2023-03-23T23:47:54.231Z,8.48
2023-03-23T23:50:57.096Z,8.52
2023-03-23T23:54:01.670Z,8.42
2023-03-23T23:57:05.860Z,8.48
